sensor_id;sensor_type;location;lat;lon;timestamp;temperature;humidity
80495;DHT22;69819;48.798;11.770;2023-07-20T00:01:24;24.50;41.20
80495;DHT22;69819;48.798;11.770;2023-07-20T00:03:50;24.50;41.30
80495;DHT22;69819;48.798;11.770;2023-07-20T00:06:24;24.50;41.30
80495;DHT22;69819;48.798;11.770;2023-07-20T00:08:53;24.50;41.40
80495;DHT22;69819;48.798;11.770;2023-07-20T00:11:20;24.50;41.40
80495;DHT22;69819;48.798;11.770;2023-07-20T00:13:47;24.50;41.40
80495;DHT22;69819;48.798;11.770;2023-07-20T00:16:13;24.50;41.50
80495;DHT22;69819;48.798;11.770;2023-07-20T00:18:38;24.50;41.50
80495;DHT22;69819;48.798;11.770;2023-07-20T00:21:04;24.50;41.50
80495;DHT22;69819;48.798;11.770;2023-07-20T00:23:30;24.50;41.50
80495;DHT22;69819;48.798;11.770;2023-07-20T00:25:56;24.50;41.50
80495;DHT22;69819;48.798;11.770;2023-07-20T00:28:22;24.50;41.60
80495;DHT22;69819;48.798;11.770;2023-07-20T00:30:48;24.50;41.60
80495;DHT22;69819;48.798;11.770;2023-07-20T00:33:17;24.50;41.70
80495;DHT22;69819;48.798;11.770;2023-07-20T00:35:44;24.40;41.80
80495;DHT22;69819;48.798;11.770;2023-07-20T00:38:10;24.40;41.70
80495;DHT22;69819;48.798;11.770;2023-07-20T00:40:40;24.40;41.60
80495;DHT22;69819;48.798;11.770;2023-07-20T00:43:07;24.30;41.80
80495;DHT22;69819;48.798;11.770;2023-07-20T00:45:34;24.20;41.60
80495;DHT22;69819;48.798;11.770;2023-07-20T00:48:02;24.20;42.20
80495;DHT22;69819;48.798;11.770;2023-07-20T00:50:31;24.10;41.60
80495;DHT22;69819;48.798;11.770;2023-07-20T00:53:00;24.00;41.80
80495;DHT22;69819;48.798;11.770;2023-07-20T00:55:30;24.00;41.90
80495;DHT22;69819;48.798;11.770;2023-07-20T00:57:57;23.80;41.80
80495;DHT22;69819;48.798;11.770;2023-07-20T01:00:24;23.80;41.90
80495;DHT22;69819;48.798;11.770;2023-07-20T01:02:51;23.70;42.00
80495;DHT22;69819;48.798;11.770;2023-07-20T01:05:17;23.60;42.10
80495;DHT22;69819;48.798;11.770;2023-07-20T01:08:07;23.50;42.10
80495;DHT22;69819;48.798;11.770;2023-07-20T01:10:55;23.50;42.90
80495;DHT22;69819;48.798;11.770;2023-07-20T01:13:28;23.40;43.00
80495;DHT22;69819;48.798;11.770;2023-07-20T01:16:01;23.30;42.40
80495;DHT22;69819;48.798;11.770;2023-07-20T01:18:27;23.30;43.00
80495;DHT22;69819;48.798;11.770;2023-07-20T01:20:59;23.20;42.70
80495;DHT22;69819;48.798;11.770;2023-07-20T01:23:52;23.20;43.10
80495;DHT22;69819;48.798;11.770;2023-07-20T01:32:10;23.20;43.40
80495;DHT22;69819;48.798;11.770;2023-07-20T01:34:38;23.30;43.20
80495;DHT22;69819;48.798;11.770;2023-07-20T01:37:06;23.30;43.30
80495;DHT22;69819;48.798;11.770;2023-07-20T01:39:32;23.30;43.40
80495;DHT22;69819;48.798;11.770;2023-07-20T01:41:58;23.30;43.40
80495;DHT22;69819;48.798;11.770;2023-07-20T01:44:25;23.30;43.50
80495;DHT22;69819;48.798;11.770;2023-07-20T01:46:51;23.30;43.50
80495;DHT22;69819;48.798;11.770;2023-07-20T01:49:17;23.30;43.50
80495;DHT22;69819;48.798;11.770;2023-07-20T01:51:43;23.40;43.50
80495;DHT22;69819;48.798;11.770;2023-07-20T01:54:09;23.40;43.60
80495;DHT22;69819;48.798;11.770;2023-07-20T01:56:34;23.40;43.60
80495;DHT22;69819;48.798;11.770;2023-07-20T01:59:00;23.40;43.70
80495;DHT22;69819;48.798;11.770;2023-07-20T02:01:26;23.40;43.70
80495;DHT22;69819;48.798;11.770;2023-07-20T02:03:54;23.40;43.70
80495;DHT22;69819;48.798;11.770;2023-07-20T02:06:21;23.40;43.70
80495;DHT22;69819;48.798;11.770;2023-07-20T02:08:46;23.40;43.70
80495;DHT22;69819;48.798;11.770;2023-07-20T02:11:12;23.40;43.70
80495;DHT22;69819;48.798;11.770;2023-07-20T02:13:38;23.40;43.80
80495;DHT22;69819;48.798;11.770;2023-07-20T02:16:04;23.40;43.80
80495;DHT22;69819;48.798;11.770;2023-07-20T02:18:30;23.40;43.80
80495;DHT22;69819;48.798;11.770;2023-07-20T02:20:56;23.40;43.90
80495;DHT22;69819;48.798;11.770;2023-07-20T02:23:23;23.40;44.00
80495;DHT22;69819;48.798;11.770;2023-07-20T02:25:48;23.40;44.10
80495;DHT22;69819;48.798;11.770;2023-07-20T02:28:14;23.40;44.20
80495;DHT22;69819;48.798;11.770;2023-07-20T02:30:40;23.30;44.20
80495;DHT22;69819;48.798;11.770;2023-07-20T02:33:07;23.30;44.20
80495;DHT22;69819;48.798;11.770;2023-07-20T02:35:33;23.40;44.40
80495;DHT22;69819;48.798;11.770;2023-07-20T02:37:59;23.30;44.30
80495;DHT22;69819;48.798;11.770;2023-07-20T02:40:25;23.30;44.40
80495;DHT22;69819;48.798;11.770;2023-07-20T02:42:51;23.30;44.50
80495;DHT22;69819;48.798;11.770;2023-07-20T02:45:17;23.30;44.60
80495;DHT22;69819;48.798;11.770;2023-07-20T02:47:43;23.20;44.60
80495;DHT22;69819;48.798;11.770;2023-07-20T02:50:09;23.20;44.70
80495;DHT22;69819;48.798;11.770;2023-07-20T02:52:35;23.10;44.70
80495;DHT22;69819;48.798;11.770;2023-07-20T02:55:01;23.10;44.70
80495;DHT22;69819;48.798;11.770;2023-07-20T02:57:27;23.10;44.80
80495;DHT22;69819;48.798;11.770;2023-07-20T02:59:53;23.00;44.80
80495;DHT22;69819;48.798;11.770;2023-07-20T03:02:19;23.00;44.80
80495;DHT22;69819;48.798;11.770;2023-07-20T03:04:45;22.90;44.90
80495;DHT22;69819;48.798;11.770;2023-07-20T03:07:11;22.90;45.00
80495;DHT22;69819;48.798;11.770;2023-07-20T03:09:36;22.80;45.10
80495;DHT22;69819;48.798;11.770;2023-07-20T03:12:03;22.80;45.30
80495;DHT22;69819;48.798;11.770;2023-07-20T03:14:30;22.80;45.40
80495;DHT22;69819;48.798;11.770;2023-07-20T03:16:56;22.80;45.40
80495;DHT22;69819;48.798;11.770;2023-07-20T03:19:22;22.70;45.40
80495;DHT22;69819;48.798;11.770;2023-07-20T03:21:48;22.70;45.30
80495;DHT22;69819;48.798;11.770;2023-07-20T03:24:14;22.70;45.40
80495;DHT22;69819;48.798;11.770;2023-07-20T03:26:40;22.70;45.40
80495;DHT22;69819;48.798;11.770;2023-07-20T03:29:06;22.70;45.40
80495;DHT22;69819;48.798;11.770;2023-07-20T03:31:32;22.70;45.50
80495;DHT22;69819;48.798;11.770;2023-07-20T03:33:58;22.60;45.40
80495;DHT22;69819;48.798;11.770;2023-07-20T03:36:24;22.60;45.40
80495;DHT22;69819;48.798;11.770;2023-07-20T03:38:50;22.60;45.30
80495;DHT22;69819;48.798;11.770;2023-07-20T03:41:16;22.60;45.40
80495;DHT22;69819;48.798;11.770;2023-07-20T03:43:42;22.70;45.40
80495;DHT22;69819;48.798;11.770;2023-07-20T03:46:08;22.70;45.30
80495;DHT22;69819;48.798;11.770;2023-07-20T03:48:34;22.70;45.30
80495;DHT22;69819;48.798;11.770;2023-07-20T03:51:00;22.70;45.30
80495;DHT22;69819;48.798;11.770;2023-07-20T03:53:26;22.70;45.30
80495;DHT22;69819;48.798;11.770;2023-07-20T03:55:52;22.70;45.30
80495;DHT22;69819;48.798;11.770;2023-07-20T03:58:19;22.70;45.30
80495;DHT22;69819;48.798;11.770;2023-07-20T04:00:51;22.70;45.30
80495;DHT22;69819;48.798;11.770;2023-07-20T04:03:18;22.70;45.30
80495;DHT22;69819;48.798;11.770;2023-07-20T04:05:45;22.80;45.40
80495;DHT22;69819;48.798;11.770;2023-07-20T04:08:11;22.80;45.40
80495;DHT22;69819;48.798;11.770;2023-07-20T04:10:38;22.80;45.30
80495;DHT22;69819;48.798;11.770;2023-07-20T04:13:05;22.90;45.30
80495;DHT22;69819;48.798;11.770;2023-07-20T04:15:31;22.90;45.20
80495;DHT22;69819;48.798;11.770;2023-07-20T04:17:57;23.00;45.30
80495;DHT22;69819;48.798;11.770;2023-07-20T04:20:23;23.00;45.20
80495;DHT22;69819;48.798;11.770;2023-07-20T04:22:50;23.10;45.20
80495;DHT22;69819;48.798;11.770;2023-07-20T04:25:17;23.10;45.00
80495;DHT22;69819;48.798;11.770;2023-07-20T04:27:44;23.20;45.00
80495;DHT22;69819;48.798;11.770;2023-07-20T04:30:11;23.30;45.10
80495;DHT22;69819;48.798;11.770;2023-07-20T04:32:38;23.30;45.00
80495;DHT22;69819;48.798;11.770;2023-07-20T04:36:01;23.40;44.90
80495;DHT22;69819;48.798;11.770;2023-07-20T04:38:14;23.50;44.80
80495;DHT22;69819;48.798;11.770;2023-07-20T04:40:47;23.50;44.40
80495;DHT22;69819;48.798;11.770;2023-07-20T04:43:15;23.60;44.40
80495;DHT22;69819;48.798;11.770;2023-07-20T04:45:42;23.60;44.20
80495;DHT22;69819;48.798;11.770;2023-07-20T04:48:12;23.70;44.10
80495;DHT22;69819;48.798;11.770;2023-07-20T04:50:41;23.80;44.00
80495;DHT22;69819;48.798;11.770;2023-07-20T04:53:11;23.90;43.80
80495;DHT22;69819;48.798;11.770;2023-07-20T04:55:38;23.90;43.60
80495;DHT22;69819;48.798;11.770;2023-07-20T04:58:05;24.10;43.60
80495;DHT22;69819;48.798;11.770;2023-07-20T05:00:38;24.10;43.40
80495;DHT22;69819;48.798;11.770;2023-07-20T05:03:04;24.20;43.30
80495;DHT22;69819;48.798;11.770;2023-07-20T05:05:31;24.40;43.30
80495;DHT22;69819;48.798;11.770;2023-07-20T05:07:57;24.40;43.70
80495;DHT22;69819;48.798;11.770;2023-07-20T05:10:23;24.50;43.60
80495;DHT22;69819;48.798;11.770;2023-07-20T05:12:49;24.60;42.90
80495;DHT22;69819;48.798;11.770;2023-07-20T05:15:15;24.80;42.80
80495;DHT22;69819;48.798;11.770;2023-07-20T05:17:41;24.90;42.70
80495;DHT22;69819;48.798;11.770;2023-07-20T05:20:08;25.00;42.50
80495;DHT22;69819;48.798;11.770;2023-07-20T05:22:38;25.20;42.40
80495;DHT22;69819;48.798;11.770;2023-07-20T05:25:07;25.30;42.20
80495;DHT22;69819;48.798;11.770;2023-07-20T05:27:38;25.40;42.10
80495;DHT22;69819;48.798;11.770;2023-07-20T05:30:06;25.60;42.10
80495;DHT22;69819;48.798;11.770;2023-07-20T05:32:33;25.70;42.00
80495;DHT22;69819;48.798;11.770;2023-07-20T05:34:59;25.90;41.90
80495;DHT22;69819;48.798;11.770;2023-07-20T05:37:25;26.10;41.90
80495;DHT22;69819;48.798;11.770;2023-07-20T05:39:51;26.30;41.60
80495;DHT22;69819;48.798;11.770;2023-07-20T05:42:17;26.60;41.40
80495;DHT22;69819;48.798;11.770;2023-07-20T05:44:43;26.90;41.20
80495;DHT22;69819;48.798;11.770;2023-07-20T05:47:09;27.10;40.80
80495;DHT22;69819;48.798;11.770;2023-07-20T05:49:35;27.30;40.50
80495;DHT22;69819;48.798;11.770;2023-07-20T05:52:01;27.50;40.20
80495;DHT22;69819;48.798;11.770;2023-07-20T05:54:27;27.60;39.80
80495;DHT22;69819;48.798;11.770;2023-07-20T05:56:54;27.80;39.80
80495;DHT22;69819;48.798;11.770;2023-07-20T05:59:20;27.80;39.50
80495;DHT22;69819;48.798;11.770;2023-07-20T06:01:46;28.00;39.40
80495;DHT22;69819;48.798;11.770;2023-07-20T06:04:14;28.10;39.40
80495;DHT22;69819;48.798;11.770;2023-07-20T06:06:41;28.30;39.40
80495;DHT22;69819;48.798;11.770;2023-07-20T06:09:07;28.60;39.70
80495;DHT22;69819;48.798;11.770;2023-07-20T06:11:40;29.10;40.00
80495;DHT22;69819;48.798;11.770;2023-07-20T06:14:06;29.70;40.20
80495;DHT22;69819;48.798;11.770;2023-07-20T06:16:32;30.40;39.90
80495;DHT22;69819;48.798;11.770;2023-07-20T06:19:00;31.10;39.60
80495;DHT22;69819;48.798;11.770;2023-07-20T06:21:26;31.90;39.30
80495;DHT22;69819;48.798;11.770;2023-07-20T06:23:52;32.90;39.00
80495;DHT22;69819;48.798;11.770;2023-07-20T06:26:18;33.80;38.20
80495;DHT22;69819;48.798;11.770;2023-07-20T06:28:45;34.60;37.20
80495;DHT22;69819;48.798;11.770;2023-07-20T06:31:11;35.50;36.50
80495;DHT22;69819;48.798;11.770;2023-07-20T06:33:37;36.20;35.50
80495;DHT22;69819;48.798;11.770;2023-07-20T06:36:03;36.80;34.60
80495;DHT22;69819;48.798;11.770;2023-07-20T06:38:30;37.40;34.10
80495;DHT22;69819;48.798;11.770;2023-07-20T06:40:55;37.90;33.30
80495;DHT22;69819;48.798;11.770;2023-07-20T06:43:21;38.40;32.40
80495;DHT22;69819;48.798;11.770;2023-07-20T06:45:53;38.70;31.60
80495;DHT22;69819;48.798;11.770;2023-07-20T06:48:20;38.90;30.30
80495;DHT22;69819;48.798;11.770;2023-07-20T06:50:46;38.90;30.30
80495;DHT22;69819;48.798;11.770;2023-07-20T06:53:13;39.00;30.40
80495;DHT22;69819;48.798;11.770;2023-07-20T06:55:39;39.30;30.50
80495;DHT22;69819;48.798;11.770;2023-07-20T06:58:07;39.70;30.60
80495;DHT22;69819;48.798;11.770;2023-07-20T07:00:32;40.20;30.40
80495;DHT22;69819;48.798;11.770;2023-07-20T07:02:58;40.90;30.10
80495;DHT22;69819;48.798;11.770;2023-07-20T07:05:24;41.50;29.90
80495;DHT22;69819;48.798;11.770;2023-07-20T07:07:50;42.10;29.30
80495;DHT22;69819;48.798;11.770;2023-07-20T07:10:16;42.70;29.00
80495;DHT22;69819;48.798;11.770;2023-07-20T07:12:42;43.40;28.50
80495;DHT22;69819;48.798;11.770;2023-07-20T07:15:08;43.90;28.00
80495;DHT22;69819;48.798;11.770;2023-07-20T07:17:36;44.50;27.60
80495;DHT22;69819;48.798;11.770;2023-07-20T07:20:02;44.90;27.60
80495;DHT22;69819;48.798;11.770;2023-07-20T07:22:29;45.40;26.80
80495;DHT22;69819;48.798;11.770;2023-07-20T07:24:56;45.90;26.40
80495;DHT22;69819;48.798;11.770;2023-07-20T07:27:22;46.30;26.20
80495;DHT22;69819;48.798;11.770;2023-07-20T07:29:48;46.80;25.80
80495;DHT22;69819;48.798;11.770;2023-07-20T07:32:15;47.00;25.20
80495;DHT22;69819;48.798;11.770;2023-07-20T07:34:41;47.40;24.90
80495;DHT22;69819;48.798;11.770;2023-07-20T07:37:07;47.60;24.60
80495;DHT22;69819;48.798;11.770;2023-07-20T07:39:33;47.80;24.40
80495;DHT22;69819;48.798;11.770;2023-07-20T07:41:58;48.00;24.00
80495;DHT22;69819;48.798;11.770;2023-07-20T07:44:25;48.10;23.60
80495;DHT22;69819;48.798;11.770;2023-07-20T07:46:51;48.00;23.30
80495;DHT22;69819;48.798;11.770;2023-07-20T07:49:17;47.70;23.00
80495;DHT22;69819;48.798;11.770;2023-07-20T07:51:45;47.50;22.90
80495;DHT22;69819;48.798;11.770;2023-07-20T07:54:11;47.10;22.70
80495;DHT22;69819;48.798;11.770;2023-07-20T07:56:37;46.70;22.70
80495;DHT22;69819;48.798;11.770;2023-07-20T07:59:03;46.30;22.80
80495;DHT22;69819;48.798;11.770;2023-07-20T08:01:30;46.00;22.90
80495;DHT22;69819;48.798;11.770;2023-07-20T08:03:55;45.70;23.00
80495;DHT22;69819;48.798;11.770;2023-07-20T08:06:21;45.40;22.80
80495;DHT22;69819;48.798;11.770;2023-07-20T08:08:49;45.00;22.90
80495;DHT22;69819;48.798;11.770;2023-07-20T08:11:15;44.60;23.00
80495;DHT22;69819;48.798;11.770;2023-07-20T08:13:43;44.50;23.40
80495;DHT22;69819;48.798;11.770;2023-07-20T08:16:09;44.60;23.60
80495;DHT22;69819;48.798;11.770;2023-07-20T08:18:35;44.80;23.60
80495;DHT22;69819;48.798;11.770;2023-07-20T08:21:01;45.00;23.40
80495;DHT22;69819;48.798;11.770;2023-07-20T08:23:27;45.00;23.10
80495;DHT22;69819;48.798;11.770;2023-07-20T08:25:53;45.00;22.90
80495;DHT22;69819;48.798;11.770;2023-07-20T08:28:19;44.90;22.60
80495;DHT22;69819;48.798;11.770;2023-07-20T08:30:49;44.60;22.50
80495;DHT22;69819;48.798;11.770;2023-07-20T08:33:17;44.50;22.40
80495;DHT22;69819;48.798;11.770;2023-07-20T08:35:46;44.40;22.70
80495;DHT22;69819;48.798;11.770;2023-07-20T08:38:13;44.30;22.70
80495;DHT22;69819;48.798;11.770;2023-07-20T08:40:40;44.10;22.50
80495;DHT22;69819;48.798;11.770;2023-07-20T08:43:09;43.90;22.50
80495;DHT22;69819;48.798;11.770;2023-07-20T08:45:41;43.60;22.40
80495;DHT22;69819;48.798;11.770;2023-07-20T08:48:08;43.30;22.60
80495;DHT22;69819;48.798;11.770;2023-07-20T08:50:35;43.20;22.80
80495;DHT22;69819;48.798;11.770;2023-07-20T08:53:02;43.20;23.10
80495;DHT22;69819;48.798;11.770;2023-07-20T08:55:29;43.40;23.20
80495;DHT22;69819;48.798;11.770;2023-07-20T08:57:57;43.60;23.20
80495;DHT22;69819;48.798;11.770;2023-07-20T09:00:25;44.00;23.20
80495;DHT22;69819;48.798;11.770;2023-07-20T09:02:55;44.20;22.70
80495;DHT22;69819;48.798;11.770;2023-07-20T09:05:23;44.20;22.20
80495;DHT22;69819;48.798;11.770;2023-07-20T09:07:52;44.30;22.50
80495;DHT22;69819;48.798;11.770;2023-07-20T09:10:23;44.40;22.50
80495;DHT22;69819;48.798;11.770;2023-07-20T09:12:49;44.50;22.40
80495;DHT22;69819;48.798;11.770;2023-07-20T09:15:16;44.50;22.10
80495;DHT22;69819;48.798;11.770;2023-07-20T09:17:50;44.40;21.70
80495;DHT22;69819;48.798;11.770;2023-07-20T09:20:17;44.20;21.30
80495;DHT22;69819;48.798;11.770;2023-07-20T09:22:44;43.90;21.50
80495;DHT22;69819;48.798;11.770;2023-07-20T09:25:18;43.40;21.50
80495;DHT22;69819;48.798;11.770;2023-07-20T09:27:48;43.00;21.50
80495;DHT22;69819;48.798;11.770;2023-07-20T09:30:16;42.50;21.80
80495;DHT22;69819;48.798;11.770;2023-07-20T09:32:46;42.30;22.00
80495;DHT22;69819;48.798;11.770;2023-07-20T09:35:14;42.00;21.90
80495;DHT22;69819;48.798;11.770;2023-07-20T09:40:29;41.30;21.70
80495;DHT22;69819;48.798;11.770;2023-07-20T09:42:55;40.90;21.70
80495;DHT22;69819;48.798;11.770;2023-07-20T09:45:33;40.40;21.80
80495;DHT22;69819;48.798;11.770;2023-07-20T09:48:09;39.90;21.90
80495;DHT22;69819;48.798;11.770;2023-07-20T09:50:43;39.50;22.00
80495;DHT22;69819;48.798;11.770;2023-07-20T09:53:15;39.00;22.10
80495;DHT22;69819;48.798;11.770;2023-07-20T09:55:44;38.60;22.50
80495;DHT22;69819;48.798;11.770;2023-07-20T09:58:12;38.30;22.50
80495;DHT22;69819;48.798;11.770;2023-07-20T10:00:39;38.20;23.10
80495;DHT22;69819;48.798;11.770;2023-07-20T10:03:06;38.20;23.40
80495;DHT22;69819;48.798;11.770;2023-07-20T10:05:39;38.40;23.60
80495;DHT22;69819;48.798;11.770;2023-07-20T10:08:12;38.60;23.60
80495;DHT22;69819;48.798;11.770;2023-07-20T10:10:41;39.00;23.50
80495;DHT22;69819;48.798;11.770;2023-07-20T10:13:15;39.30;23.10
80495;DHT22;69819;48.798;11.770;2023-07-20T10:16:10;39.50;23.00
80495;DHT22;69819;48.798;11.770;2023-07-20T10:19:14;39.60;22.80
80495;DHT22;69819;48.798;11.770;2023-07-20T10:21:56;39.50;22.60
80495;DHT22;69819;48.798;11.770;2023-07-20T10:24:27;39.40;22.60
80495;DHT22;69819;48.798;11.770;2023-07-20T10:26:56;39.20;22.40
80495;DHT22;69819;48.798;11.770;2023-07-20T10:29:23;39.10;22.50
80495;DHT22;69819;48.798;11.770;2023-07-20T10:31:54;38.90;22.50
80495;DHT22;69819;48.798;11.770;2023-07-20T10:34:21;38.90;22.70
80495;DHT22;69819;48.798;11.770;2023-07-20T10:36:48;38.90;22.70
80495;DHT22;69819;48.798;11.770;2023-07-20T10:39:33;38.90;22.70
80495;DHT22;69819;48.798;11.770;2023-07-20T10:42:02;39.00;22.60
80495;DHT22;69819;48.798;11.770;2023-07-20T10:44:31;39.00;22.50
80495;DHT22;69819;48.798;11.770;2023-07-20T10:47:02;39.00;22.30
80495;DHT22;69819;48.798;11.770;2023-07-20T10:49:33;38.90;22.00
80495;DHT22;69819;48.798;11.770;2023-07-20T10:52:00;38.70;22.00
80495;DHT22;69819;48.798;11.770;2023-07-20T10:56:57;38.30;21.90
80495;DHT22;69819;48.798;11.770;2023-07-20T10:59:43;38.00;22.10
80495;DHT22;69819;48.798;11.770;2023-07-20T11:02:12;37.70;22.10
80495;DHT22;69819;48.798;11.770;2023-07-20T11:04:39;37.40;22.00
80495;DHT22;69819;48.798;11.770;2023-07-20T11:07:06;37.10;21.90
80495;DHT22;69819;48.798;11.770;2023-07-20T11:09:36;36.80;22.10
80495;DHT22;69819;48.798;11.770;2023-07-20T11:12:10;36.60;22.20
80495;DHT22;69819;48.798;11.770;2023-07-20T11:14:56;36.30;22.20
80495;DHT22;69819;48.798;11.770;2023-07-20T11:17:30;36.00;22.10
80495;DHT22;69819;48.798;11.770;2023-07-20T11:19:58;35.80;22.20
80495;DHT22;69819;48.798;11.770;2023-07-20T11:22:26;35.60;22.50
80495;DHT22;69819;48.798;11.770;2023-07-20T11:24:56;35.40;22.50
80495;DHT22;69819;48.798;11.770;2023-07-20T11:27:22;35.20;22.50
80495;DHT22;69819;48.798;11.770;2023-07-20T11:29:48;35.00;22.50
80495;DHT22;69819;48.798;11.770;2023-07-20T11:32:24;34.90;22.50
80495;DHT22;69819;48.798;11.770;2023-07-20T11:34:51;34.70;22.40
80495;DHT22;69819;48.798;11.770;2023-07-20T11:37:17;34.60;22.60
80495;DHT22;69819;48.798;11.770;2023-07-20T11:39:44;34.50;22.70
80495;DHT22;69819;48.798;11.770;2023-07-20T11:42:10;34.40;22.90
80495;DHT22;69819;48.798;11.770;2023-07-20T11:44:38;34.30;22.90
80495;DHT22;69819;48.798;11.770;2023-07-20T11:47:11;34.20;23.10
80495;DHT22;69819;48.798;11.770;2023-07-20T11:49:42;34.10;23.00
80495;DHT22;69819;48.798;11.770;2023-07-20T11:52:14;34.20;23.10
80495;DHT22;69819;48.798;11.770;2023-07-20T11:54:42;34.10;22.90
80495;DHT22;69819;48.798;11.770;2023-07-20T11:57:21;34.00;22.90
80495;DHT22;69819;48.798;11.770;2023-07-20T12:02:26;33.90;22.90
80495;DHT22;69819;48.798;11.770;2023-07-20T12:04:54;33.80;23.00
80495;DHT22;69819;48.798;11.770;2023-07-20T12:07:21;33.80;23.30
80495;DHT22;69819;48.798;11.770;2023-07-20T12:10:07;33.80;23.40
80495;DHT22;69819;48.798;11.770;2023-07-20T12:12:40;33.80;23.10
80495;DHT22;69819;48.798;11.770;2023-07-20T12:15:15;33.80;23.10
80495;DHT22;69819;48.798;11.770;2023-07-20T12:17:43;33.80;23.00
80495;DHT22;69819;48.798;11.770;2023-07-20T12:20:11;33.80;23.00
80495;DHT22;69819;48.798;11.770;2023-07-20T12:22:42;33.70;22.80
80495;DHT22;69819;48.798;11.770;2023-07-20T12:25:09;33.60;22.70
80495;DHT22;69819;48.798;11.770;2023-07-20T12:27:36;33.60;22.90
80495;DHT22;69819;48.798;11.770;2023-07-20T12:30:05;33.50;22.80
80495;DHT22;69819;48.798;11.770;2023-07-20T12:32:31;33.50;22.90
80495;DHT22;69819;48.798;11.770;2023-07-20T12:34:58;33.40;22.90
80495;DHT22;69819;48.798;11.770;2023-07-20T12:37:26;33.40;23.20
80495;DHT22;69819;48.798;11.770;2023-07-20T12:39:52;33.30;23.20
80495;DHT22;69819;48.798;11.770;2023-07-20T12:42:18;33.30;23.30
80495;DHT22;69819;48.798;11.770;2023-07-20T12:44:44;33.40;23.40
80495;DHT22;69819;48.798;11.770;2023-07-20T12:47:10;33.40;23.40
80495;DHT22;69819;48.798;11.770;2023-07-20T12:49:36;33.50;23.30
80495;DHT22;69819;48.798;11.770;2023-07-20T12:52:01;33.60;23.30
80495;DHT22;69819;48.798;11.770;2023-07-20T12:54:27;33.60;23.30
80495;DHT22;69819;48.798;11.770;2023-07-20T12:56:53;33.80;23.30
80495;DHT22;69819;48.798;11.770;2023-07-20T12:59:19;33.80;23.20
80495;DHT22;69819;48.798;11.770;2023-07-20T13:01:45;33.90;23.10
80495;DHT22;69819;48.798;11.770;2023-07-20T13:04:11;34.00;23.10
80495;DHT22;69819;48.798;11.770;2023-07-20T13:06:37;34.10;23.00
80495;DHT22;69819;48.798;11.770;2023-07-20T13:09:03;34.10;23.00
80495;DHT22;69819;48.798;11.770;2023-07-20T13:11:30;34.10;22.90
80495;DHT22;69819;48.798;11.770;2023-07-20T13:13:56;34.20;22.80
80495;DHT22;69819;48.798;11.770;2023-07-20T13:16:21;34.30;22.80
80495;DHT22;69819;48.798;11.770;2023-07-20T13:18:48;34.20;22.80
80495;DHT22;69819;48.798;11.770;2023-07-20T13:21:14;34.20;22.80
80495;DHT22;69819;48.798;11.770;2023-07-20T13:23:40;34.20;22.70
80495;DHT22;69819;48.798;11.770;2023-07-20T13:26:06;34.20;22.70
80495;DHT22;69819;48.798;11.770;2023-07-20T13:28:33;34.20;22.80
80495;DHT22;69819;48.798;11.770;2023-07-20T13:30:59;34.20;22.60
80495;DHT22;69819;48.798;11.770;2023-07-20T13:33:26;34.10;22.50
80495;DHT22;69819;48.798;11.770;2023-07-20T13:35:53;34.10;22.60
80495;DHT22;69819;48.798;11.770;2023-07-20T13:38:19;34.00;22.70
80495;DHT22;69819;48.798;11.770;2023-07-20T13:40:45;33.90;22.60
80495;DHT22;69819;48.798;11.770;2023-07-20T13:43:11;33.90;22.60
80495;DHT22;69819;48.798;11.770;2023-07-20T13:45:37;33.80;22.60
80495;DHT22;69819;48.798;11.770;2023-07-20T13:48:03;33.70;22.60
80495;DHT22;69819;48.798;11.770;2023-07-20T13:50:29;33.80;22.60
80495;DHT22;69819;48.798;11.770;2023-07-20T13:52:55;33.60;22.60
80495;DHT22;69819;48.798;11.770;2023-07-20T13:55:21;33.60;22.50
80495;DHT22;69819;48.798;11.770;2023-07-20T13:57:47;33.60;22.60
80495;DHT22;69819;48.798;11.770;2023-07-20T14:00:13;33.50;22.60
80495;DHT22;69819;48.798;11.770;2023-07-20T14:02:39;33.40;22.50
80495;DHT22;69819;48.798;11.770;2023-07-20T14:05:05;33.30;22.60
80495;DHT22;69819;48.798;11.770;2023-07-20T14:07:31;33.20;22.60
80495;DHT22;69819;48.798;11.770;2023-07-20T14:09:57;33.10;22.60
80495;DHT22;69819;48.798;11.770;2023-07-20T14:12:24;33.00;22.60
80495;DHT22;69819;48.798;11.770;2023-07-20T14:14:50;32.90;22.60
80495;DHT22;69819;48.798;11.770;2023-07-20T14:17:16;32.90;23.30
80495;DHT22;69819;48.798;11.770;2023-07-20T14:19:42;32.80;22.80
80495;DHT22;69819;48.798;11.770;2023-07-20T14:22:08;32.80;23.00
80495;DHT22;69819;48.798;11.770;2023-07-20T14:24:33;32.80;23.00
80495;DHT22;69819;48.798;11.770;2023-07-20T14:26:59;32.80;23.00
80495;DHT22;69819;48.798;11.770;2023-07-20T14:29:26;32.70;23.10
80495;DHT22;69819;48.798;11.770;2023-07-20T14:31:52;32.70;23.10
80495;DHT22;69819;48.798;11.770;2023-07-20T14:34:19;32.80;23.20
80495;DHT22;69819;48.798;11.770;2023-07-20T14:36:45;32.80;23.20
80495;DHT22;69819;48.798;11.770;2023-07-20T14:39:11;32.80;23.30
80495;DHT22;69819;48.798;11.770;2023-07-20T14:41:37;32.80;23.10
80495;DHT22;69819;48.798;11.770;2023-07-20T14:44:03;32.80;23.10
80495;DHT22;69819;48.798;11.770;2023-07-20T14:46:29;32.90;23.30
80495;DHT22;69819;48.798;11.770;2023-07-20T14:48:55;32.90;23.30
80495;DHT22;69819;48.798;11.770;2023-07-20T14:51:22;32.90;23.20
80495;DHT22;69819;48.798;11.770;2023-07-20T14:53:48;32.90;23.10
80495;DHT22;69819;48.798;11.770;2023-07-20T14:56:14;33.00;23.10
80495;DHT22;69819;48.798;11.770;2023-07-20T14:58:40;33.00;23.00
80495;DHT22;69819;48.798;11.770;2023-07-20T15:01:06;33.00;22.90
80495;DHT22;69819;48.798;11.770;2023-07-20T15:03:32;33.00;22.80
80495;DHT22;69819;48.798;11.770;2023-07-20T15:05:58;33.00;22.90
80495;DHT22;69819;48.798;11.770;2023-07-20T15:08:24;32.90;22.80
80495;DHT22;69819;48.798;11.770;2023-07-20T15:10:50;32.90;22.90
80495;DHT22;69819;48.798;11.770;2023-07-20T15:13:16;32.80;22.90
80495;DHT22;69819;48.798;11.770;2023-07-20T15:15:41;32.70;22.90
80495;DHT22;69819;48.798;11.770;2023-07-20T15:18:08;32.70;22.90
80495;DHT22;69819;48.798;11.770;2023-07-20T15:20:34;32.70;23.00
80495;DHT22;69819;48.798;11.770;2023-07-20T15:23:00;32.70;23.00
80495;DHT22;69819;48.798;11.770;2023-07-20T15:25:26;32.60;23.00
80495;DHT22;69819;48.798;11.770;2023-07-20T15:27:52;32.60;23.00
80495;DHT22;69819;48.798;11.770;2023-07-20T15:30:19;32.60;23.20
80495;DHT22;69819;48.798;11.770;2023-07-20T15:32:44;32.60;23.20